createdAt,value
2023-02-27T00:00:14.654Z,3.70
2023-02-27T00:02:18.628Z,3.70
2023-02-27T00:04:22.047Z,3.68
2023-02-27T00:06:25.716Z,3.70
2023-02-27T00:08:29.126Z,3.69
2023-02-27T00:10:32.561Z,3.71
2023-02-27T00:12:37.828Z,3.70
2023-02-27T00:14:43.227Z,3.62
2023-02-27T00:16:48.004Z,3.59
2023-02-27T00:18:51.342Z,3.59
2023-02-27T00:20:54.997Z,3.56
2023-02-27T00:22:58.659Z,3.51
2023-02-27T00:25:02.001Z,3.33
2023-02-27T00:27:05.484Z,3.47
2023-02-27T00:29:09.546Z,3.50
2023-02-27T00:31:12.952Z,3.44
2023-02-27T00:33:17.731Z,3.38
2023-02-27T00:35:21.613Z,3.36
2023-02-27T00:37:25.562Z,3.32
2023-02-27T00:39:29.936Z,3.20
2023-02-27T00:41:33.307Z,3.14
2023-02-27T00:43:37.426Z,3.17
2023-02-27T00:45:40.905Z,3.22
2023-02-27T00:47:44.480Z,3.29
2023-02-27T00:49:49.381Z,3.37
2023-02-27T00:51:53.777Z,3.38
2023-02-27T00:53:57.141Z,3.37
2023-02-27T00:56:00.547Z,3.40
2023-02-27T00:58:04.109Z,3.42
2023-02-27T01:00:10.085Z,3.35
2023-02-27T01:02:14.150Z,3.34
2023-02-27T01:04:17.551Z,3.32
2023-02-27T01:06:22.485Z,3.31
2023-02-27T01:08:25.902Z,3.10
2023-02-27T01:10:29.720Z,3.38
2023-02-27T01:12:33.588Z,3.37
2023-02-27T01:14:37.143Z,3.32
2023-02-27T01:16:40.569Z,3.27
2023-02-27T01:18:44.542Z,3.31
2023-02-27T01:20:47.847Z,3.34
2023-02-27T01:22:52.598Z,3.34
2023-02-27T01:24:55.961Z,3.33
2023-02-27T01:26:59.592Z,3.33
2023-02-27T01:29:04.664Z,3.32
2023-02-27T01:31:10.114Z,3.29
2023-02-27T01:33:13.804Z,3.24
2023-02-27T01:35:17.913Z,3.15
2023-02-27T01:37:21.534Z,3.07
2023-02-27T01:39:27.027Z,3.05
2023-02-27T01:41:31.602Z,3.08
2023-02-27T01:43:35.680Z,3.06
2023-02-27T01:45:41.090Z,2.91
2023-02-27T01:47:49.365Z,3.03
2023-02-27T01:49:52.638Z,3.01
2023-02-27T01:52:01.889Z,2.78
2023-02-27T01:54:07.575Z,2.93
2023-02-27T01:56:19.916Z,2.91
2023-02-27T01:58:24.100Z,2.85
2023-02-27T02:00:28.410Z,2.81
2023-02-27T02:02:37.557Z,2.78
2023-02-27T02:04:42.210Z,2.76
2023-02-27T02:06:48.545Z,2.56
2023-02-27T02:08:55.059Z,2.59
2023-02-27T02:10:59.936Z,2.72
2023-02-27T02:13:04.886Z,2.72
2023-02-27T02:15:09.441Z,2.70
2023-02-27T02:17:16.871Z,2.75
2023-02-27T02:19:54.381Z,2.75
2023-02-27T02:22:50.018Z,2.78
2023-02-27T02:25:27.071Z,2.54
2023-02-27T02:27:46.298Z,2.73
2023-02-27T02:30:26.923Z,2.72
2023-02-27T02:33:15.126Z,2.59
2023-02-27T02:35:51.303Z,2.59
2023-02-27T02:38:35.597Z,2.58
2023-02-27T02:40:48.138Z,2.53
2023-02-27T02:42:56.529Z,2.53
2023-02-27T02:45:11.721Z,2.57
2023-02-27T02:47:26.604Z,2.53
2023-02-27T02:49:36.761Z,2.52
2023-02-27T02:51:49.398Z,2.25
2023-02-27T02:54:01.340Z,2.09
2023-02-27T02:56:11.888Z,2.49
2023-02-27T02:58:22.662Z,2.54
2023-02-27T03:00:31.112Z,2.49
2023-02-27T03:02:40.237Z,2.44
2023-02-27T03:04:50.680Z,2.40
2023-02-27T03:06:59.542Z,2.27
2023-02-27T03:09:08.486Z,2.24
2023-02-27T03:11:13.400Z,2.31
2023-02-27T03:13:23.512Z,2.36
2023-02-27T03:15:30.989Z,2.32
2023-02-27T03:17:44.016Z,2.28
2023-02-27T03:19:55.038Z,2.25
2023-02-27T03:22:08.245Z,2.22
2023-02-27T03:24:21.542Z,2.20
2023-02-27T03:26:43.532Z,2.25
2023-02-27T03:28:53.164Z,2.26
2023-02-27T03:31:01.601Z,2.23
2023-02-27T03:33:12.838Z,2.22
2023-02-27T03:35:17.841Z,2.21
2023-02-27T03:37:31.916Z,2.17
2023-02-27T03:39:43.154Z,2.12
2023-02-27T03:41:53.007Z,2.08
2023-02-27T03:44:21.972Z,2.12
2023-02-27T03:46:28.918Z,2.05
2023-02-27T03:48:32.591Z,2.02
2023-02-27T03:50:37.041Z,2.00
2023-02-27T03:52:41.497Z,1.95
2023-02-27T03:54:52.637Z,1.95
2023-02-27T03:57:01.664Z,1.99
2023-02-27T03:59:06.170Z,2.01
2023-02-27T04:01:12.289Z,2.02
2023-02-27T04:03:15.703Z,2.06
2023-02-27T04:05:19.585Z,2.09
2023-02-27T04:07:37.635Z,2.09
2023-02-27T04:09:59.640Z,2.06
2023-02-27T04:12:19.362Z,2.00
2023-02-27T04:14:39.444Z,1.96
2023-02-27T04:17:04.688Z,1.89
2023-02-27T04:19:21.716Z,1.85
2023-02-27T04:21:35.905Z,1.80
2023-02-27T04:23:42.025Z,1.73
2023-02-27T04:25:55.712Z,1.68
2023-02-27T04:28:10.150Z,1.70
2023-02-27T04:30:26.279Z,1.63
2023-02-27T04:32:36.098Z,1.60
2023-02-27T04:34:42.831Z,1.63
2023-02-27T04:36:52.725Z,1.69
2023-02-27T04:39:04.259Z,1.73
2023-02-27T04:41:13.087Z,1.80
2023-02-27T04:43:20.726Z,1.82
2023-02-27T04:45:26.910Z,1.80
2023-02-27T04:47:34.888Z,1.80
2023-02-27T04:49:45.326Z,1.83
2023-02-27T04:51:54.759Z,1.83
2023-02-27T04:54:02.749Z,1.84
2023-02-27T04:56:11.575Z,1.81
2023-02-27T04:58:19.809Z,1.82
2023-02-27T05:00:26.698Z,1.79
2023-02-27T05:02:34.856Z,1.80
2023-02-27T05:04:41.128Z,1.78
2023-02-27T05:06:46.567Z,1.77
2023-02-27T05:09:00.353Z,1.60
2023-02-27T05:11:10.148Z,1.60
2023-02-27T05:13:17.410Z,1.06
2023-02-27T05:15:28.495Z,1.54
2023-02-27T05:17:35.525Z,1.54
2023-02-27T05:19:41.066Z,1.52
2023-02-27T05:21:53.124Z,1.43
2023-02-27T05:24:07.746Z,1.54
2023-02-27T05:26:18.218Z,1.54
2023-02-27T05:28:30.982Z,1.53
2023-02-27T05:30:41.143Z,0.75
2023-02-27T05:32:50.701Z,1.50
2023-02-27T05:35:03.237Z,1.48
2023-02-27T05:37:13.666Z,1.30
2023-02-27T05:39:21.581Z,1.44
2023-02-27T05:41:29.603Z,1.40
2023-02-27T05:43:38.629Z,1.51
2023-02-27T05:45:46.157Z,1.54
2023-02-27T05:47:57.305Z,1.46
2023-02-27T05:50:07.764Z,1.37
2023-02-27T05:52:15.940Z,1.32
2023-02-27T05:54:34.543Z,0.57
2023-02-27T05:56:40.099Z,1.28
2023-02-27T05:58:50.084Z,1.21
2023-02-27T06:00:59.183Z,1.04
2023-02-27T06:03:02.851Z,1.13
2023-02-27T06:05:08.185Z,0.49
2023-02-27T06:07:13.300Z,0.99
2023-02-27T06:09:17.486Z,1.16
2023-02-27T06:11:21.477Z,1.08
2023-02-27T06:13:26.101Z,1.07
2023-02-27T06:15:29.620Z,1.06
2023-02-27T06:17:34.809Z,0.91
2023-02-27T06:19:38.712Z,0.89
2023-02-27T06:21:42.228Z,0.86
2023-02-27T06:23:45.604Z,0.84
2023-02-27T06:25:50.336Z,0.91
2023-02-27T06:27:54.229Z,0.90
2023-02-27T06:29:57.613Z,0.93
2023-02-27T06:32:01.514Z,0.83
2023-02-27T06:34:06.926Z,0.59
2023-02-27T06:36:10.265Z,0.48
2023-02-27T06:38:13.680Z,0.50
2023-02-27T06:40:19.078Z,0.58
2023-02-27T06:42:22.581Z,0.54
2023-02-27T06:44:26.052Z,0.49
2023-02-27T06:46:30.703Z,0.46
2023-02-27T06:48:34.810Z,0.53
2023-02-27T06:50:39.487Z,0.64
2023-02-27T06:52:43.449Z,0.68
2023-02-27T06:54:46.898Z,0.58
2023-02-27T06:56:51.752Z,0.65
2023-02-27T06:58:55.293Z,0.62
2023-02-27T07:01:02.689Z,0.68
2023-02-27T07:03:06.120Z,0.77
2023-02-27T07:05:11.919Z,0.86
2023-02-27T07:07:34.420Z,0.95
2023-02-27T07:09:40.602Z,1.01
2023-02-27T07:11:43.894Z,1.06
2023-02-27T07:13:48.580Z,0.68
2023-02-27T07:15:52.501Z,1.17
2023-02-27T07:17:55.908Z,1.23
2023-02-27T07:20:00.261Z,1.29
2023-02-27T07:22:03.635Z,2.83
2023-02-27T07:24:09.958Z,4.30
2023-02-27T07:26:14.045Z,5.25
2023-02-27T07:28:18.939Z,5.17
2023-02-27T07:30:22.696Z,4.67
2023-02-27T07:32:26.978Z,4.17
2023-02-27T07:34:30.341Z,3.69
2023-02-27T07:36:33.952Z,3.39
2023-02-27T07:38:38.020Z,3.14
2023-02-27T07:40:43.079Z,2.92
2023-02-27T07:42:49.002Z,2.75
2023-02-27T07:44:53.042Z,2.64
2023-02-27T07:46:56.509Z,2.58
2023-02-27T07:49:00.421Z,2.49
2023-02-27T07:51:03.826Z,2.46
2023-02-27T07:53:08.447Z,2.39
2023-02-27T07:55:13.555Z,2.35
2023-02-27T07:57:20.441Z,2.28
2023-02-27T07:59:23.808Z,2.25
2023-02-27T08:01:27.919Z,2.22
2023-02-27T08:03:31.284Z,2.19
2023-02-27T08:05:34.745Z,2.21
2023-02-27T08:07:38.279Z,2.23
2023-02-27T08:09:41.633Z,2.24
2023-02-27T08:11:47.798Z,2.10
2023-02-27T08:14:00.689Z,2.29
2023-02-27T08:16:05.100Z,2.30
2023-02-27T08:18:08.838Z,2.29
2023-02-27T08:20:13.732Z,2.31
2023-02-27T08:22:17.667Z,2.34
2023-02-27T08:24:21.031Z,2.35
2023-02-27T08:26:24.483Z,2.37
2023-02-27T08:28:28.379Z,2.43
2023-02-27T08:30:33.658Z,2.40
2023-02-27T08:32:38.651Z,2.43
2023-02-27T08:34:42.224Z,2.56
2023-02-27T08:36:45.672Z,2.66
2023-02-27T08:38:49.247Z,2.68
2023-02-27T08:40:54.211Z,2.63
2023-02-27T08:42:57.706Z,2.63
2023-02-27T08:45:01.201Z,2.57
2023-02-27T08:47:05.988Z,2.67
2023-02-27T08:49:10.495Z,2.83
2023-02-27T08:51:13.927Z,2.93
2023-02-27T08:53:17.609Z,3.05
2023-02-27T08:55:21.497Z,3.05
2023-02-27T08:57:25.018Z,3.03
2023-02-27T08:59:28.662Z,3.07
2023-02-27T09:01:34.702Z,3.05
2023-02-27T09:03:39.553Z,3.10
2023-02-27T09:05:43.037Z,3.12
2023-02-27T09:07:46.704Z,3.12
2023-02-27T09:09:50.206Z,3.16
2023-02-27T09:11:54.062Z,3.18
2023-02-27T09:13:58.803Z,3.06
2023-02-27T09:16:02.130Z,3.35
2023-02-27T09:18:06.927Z,3.37
2023-02-27T09:20:13.531Z,3.40
2023-02-27T09:22:16.867Z,3.44
2023-02-27T09:24:21.030Z,3.83
2023-02-27T09:26:39.752Z,4.37
2023-02-27T09:28:45.542Z,4.00
2023-02-27T09:30:49.061Z,4.00
2023-02-27T09:32:52.565Z,3.92
2023-02-27T09:34:55.990Z,4.01
2023-02-27T09:37:01.688Z,4.02
2023-02-27T09:39:05.392Z,3.99
2023-02-27T09:41:22.010Z,3.89
2023-02-27T09:43:31.819Z,3.85
2023-02-27T09:45:39.544Z,3.69
2023-02-27T09:47:50.706Z,3.66
2023-02-27T09:50:00.374Z,3.55
2023-02-27T09:52:05.084Z,4.05
2023-02-27T09:54:08.686Z,4.22
2023-02-27T09:56:23.833Z,4.42
2023-02-27T09:58:38.952Z,4.53
2023-02-27T10:00:49.960Z,4.63
2023-02-27T10:03:00.885Z,4.81
2023-02-27T10:05:14.082Z,4.77
2023-02-27T10:07:26.530Z,5.13
2023-02-27T10:09:39.199Z,4.99
2023-02-27T10:11:54.474Z,5.34
2023-02-27T10:14:05.743Z,5.52
2023-02-27T10:16:13.191Z,5.67
2023-02-27T10:18:28.304Z,5.71
2023-02-27T10:20:36.789Z,5.21
2023-02-27T10:22:46.077Z,5.49
2023-02-27T10:24:53.979Z,5.42
2023-02-27T10:26:59.371Z,5.48
2023-02-27T10:29:15.273Z,5.68
2023-02-27T10:31:24.046Z,5.82
2023-02-27T10:33:33.974Z,6.11
2023-02-27T10:35:40.030Z,6.18
2023-02-27T10:37:50.278Z,6.20
2023-02-27T10:39:56.118Z,6.12
2023-02-27T10:42:04.628Z,6.18
2023-02-27T10:44:09.631Z,6.13
2023-02-27T10:46:17.029Z,6.21
2023-02-27T10:48:22.568Z,6.54
2023-02-27T10:50:28.916Z,6.62
2023-02-27T10:52:32.452Z,6.70
2023-02-27T10:54:38.663Z,6.87
2023-02-27T10:56:45.691Z,7.43
2023-02-27T10:59:03.734Z,7.68
2023-02-27T11:01:08.976Z,7.72
2023-02-27T11:03:22.117Z,7.84
2023-02-27T11:05:28.250Z,7.44
2023-02-27T11:07:34.268Z,7.60
2023-02-27T11:09:39.506Z,7.46
2023-02-27T11:11:43.627Z,7.36
2023-02-27T11:13:47.232Z,7.52
2023-02-27T11:16:04.608Z,7.89
2023-02-27T11:18:25.539Z,8.29
2023-02-27T11:20:37.717Z,8.52
2023-02-27T11:22:42.640Z,8.51
2023-02-27T11:24:48.471Z,8.24
2023-02-27T11:26:57.644Z,8.20
2023-02-27T11:29:18.387Z,8.48
2023-02-27T11:31:24.382Z,8.45
2023-02-27T11:33:30.088Z,8.76
2023-02-27T11:35:35.545Z,8.82
2023-02-27T11:37:41.272Z,9.04
2023-02-27T11:39:52.218Z,8.88
2023-02-27T11:41:57.884Z,9.02
2023-02-27T11:44:05.434Z,8.94
2023-02-27T11:46:24.389Z,9.19
2023-02-27T11:48:41.006Z,9.45
2023-02-27T11:51:00.238Z,9.45
2023-02-27T11:53:21.684Z,9.30
2023-02-27T11:55:29.238Z,9.71
2023-02-27T11:57:36.473Z,10.05
2023-02-27T11:59:48.013Z,10.27
2023-02-27T12:01:57.591Z,10.63
2023-02-27T12:04:05.827Z,10.72
2023-02-27T12:06:18.122Z,10.96
2023-02-27T12:08:31.829Z,10.38
2023-02-27T12:10:48.530Z,10.40
2023-02-27T12:12:56.410Z,9.69
2023-02-27T12:15:08.209Z,10.35
2023-02-27T12:17:21.266Z,10.46
2023-02-27T12:19:31.156Z,10.22
2023-02-27T12:21:38.817Z,10.32
2023-02-27T12:23:47.008Z,10.29
2023-02-27T12:25:56.286Z,10.67
2023-02-27T12:28:05.561Z,10.94
2023-02-27T12:30:16.234Z,10.54
2023-02-27T12:32:24.207Z,10.62
2023-02-27T12:34:29.428Z,10.61
2023-02-27T12:36:33.235Z,10.68
2023-02-27T12:38:36.999Z,11.13
2023-02-27T12:40:53.712Z,11.06
2023-02-27T12:43:13.999Z,10.93
2023-02-27T12:45:42.722Z,10.82
2023-02-27T12:47:49.339Z,10.99
2023-02-27T12:49:59.312Z,11.09
2023-02-27T12:52:13.881Z,11.34
2023-02-27T12:54:36.955Z,11.56
2023-02-27T12:56:51.109Z,11.11
2023-02-27T12:59:03.996Z,11.21
2023-02-27T13:01:21.188Z,11.14
2023-02-27T13:03:29.689Z,11.29
2023-02-27T13:05:42.926Z,11.08
2023-02-27T13:07:53.252Z,10.02
2023-02-27T13:10:01.162Z,9.88
2023-02-27T13:12:12.361Z,10.52
2023-02-27T13:14:30.646Z,10.49
2023-02-27T13:16:38.384Z,10.32
2023-02-27T13:18:48.930Z,9.85
2023-02-27T13:20:58.060Z,10.28
2023-02-27T13:23:17.180Z,10.04
2023-02-27T13:25:21.768Z,10.53
2023-02-27T13:27:29.535Z,10.87
2023-02-27T13:29:39.063Z,11.27
2023-02-27T13:31:51.183Z,11.41
2023-02-27T13:34:03.459Z,11.26
2023-02-27T13:36:14.665Z,11.13
2023-02-27T13:38:42.436Z,11.30
2023-02-27T13:40:45.882Z,11.72
2023-02-27T13:43:00.395Z,11.23
2023-02-27T13:45:08.005Z,11.33
2023-02-27T13:47:40.641Z,11.44
2023-02-27T13:49:44.246Z,11.53
2023-02-27T13:51:49.075Z,11.72
2023-02-27T13:54:09.879Z,12.06
2023-02-27T13:56:22.896Z,12.26
2023-02-27T13:58:26.390Z,12.53
2023-02-27T14:00:33.412Z,12.29
2023-02-27T14:02:58.453Z,12.32
2023-02-27T14:05:07.182Z,12.30
2023-02-27T14:07:13.000Z,12.56
2023-02-27T14:09:21.311Z,12.50
2023-02-27T14:11:28.086Z,11.58
2023-02-27T14:14:04.114Z,11.27
2023-02-27T14:16:11.284Z,11.63
2023-02-27T14:18:49.501Z,11.83
2023-02-27T14:20:53.174Z,11.98
2023-02-27T14:23:16.442Z,12.19
2023-02-27T14:25:27.165Z,12.05
2023-02-27T14:27:37.802Z,12.22
2023-02-27T14:29:46.313Z,12.02
2023-02-27T14:31:52.203Z,11.91
2023-02-27T14:33:59.129Z,11.70
2023-02-27T14:36:05.166Z,12.13
2023-02-27T14:38:12.596Z,12.00
2023-02-27T14:40:29.638Z,12.10
2023-02-27T14:42:47.745Z,11.52
2023-02-27T14:44:52.507Z,12.68
2023-02-27T14:46:59.671Z,12.64
2023-02-27T14:49:06.743Z,12.88
2023-02-27T14:51:11.142Z,13.03
2023-02-27T14:53:24.318Z,12.76
2023-02-27T14:55:30.344Z,12.79
2023-02-27T14:57:33.745Z,12.64
2023-02-27T14:59:44.432Z,12.62
2023-02-27T15:01:47.893Z,12.61
2023-02-27T15:03:55.015Z,12.27
2023-02-27T15:06:02.034Z,12.28
2023-02-27T15:08:05.618Z,12.61
2023-02-27T15:10:17.509Z,12.62
2023-02-27T15:12:22.915Z,12.92
2023-02-27T15:14:35.176Z,12.56
2023-02-27T15:16:40.484Z,12.20
2023-02-27T15:18:43.812Z,12.14
2023-02-27T15:20:57.842Z,11.38
2023-02-27T15:23:04.212Z,11.56
2023-02-27T15:25:09.164Z,11.69
2023-02-27T15:27:17.049Z,11.91
2023-02-27T15:29:23.944Z,11.92
2023-02-27T15:31:32.028Z,12.06
2023-02-27T15:33:37.841Z,11.81
2023-02-27T15:35:45.444Z,12.01
2023-02-27T15:37:53.924Z,11.93
2023-02-27T15:39:59.428Z,11.89
2023-02-27T15:42:05.265Z,11.50
2023-02-27T15:44:08.713Z,11.17
2023-02-27T15:46:12.417Z,10.77
2023-02-27T15:48:16.976Z,10.51
2023-02-27T15:50:28.299Z,10.25
2023-02-27T15:52:39.646Z,9.84
2023-02-27T15:54:48.971Z,9.78
2023-02-27T15:56:53.516Z,9.77
2023-02-27T15:59:00.642Z,9.68
2023-02-27T16:01:08.801Z,10.00
2023-02-27T16:03:16.480Z,9.86
2023-02-27T16:05:26.020Z,9.66
2023-02-27T16:07:30.881Z,9.60
2023-02-27T16:09:36.428Z,9.16
2023-02-27T16:11:41.295Z,9.08
2023-02-27T16:13:44.709Z,9.06
2023-02-27T16:15:59.772Z,9.02
2023-02-27T16:18:22.304Z,8.92
2023-02-27T16:20:42.387Z,8.65
2023-02-27T16:23:03.706Z,8.77
2023-02-27T16:25:13.456Z,8.68
2023-02-27T16:27:23.515Z,8.58
2023-02-27T16:29:36.036Z,8.44
2023-02-27T16:31:41.692Z,8.27
2023-02-27T16:33:45.115Z,8.18
2023-02-27T16:35:48.847Z,8.04
2023-02-27T16:37:53.511Z,7.81
2023-02-27T16:39:56.849Z,7.97
2023-02-27T16:42:01.727Z,7.68
2023-02-27T16:44:06.533Z,7.61
2023-02-27T16:46:09.893Z,7.56
2023-02-27T16:48:13.284Z,7.54
2023-02-27T16:50:22.497Z,7.28
2023-02-27T16:52:25.927Z,6.86
2023-02-27T16:54:29.249Z,7.41
2023-02-27T16:56:38.455Z,7.37
2023-02-27T16:58:42.793Z,7.20
2023-02-27T17:00:47.492Z,7.32
2023-02-27T17:02:51.128Z,7.38
2023-02-27T17:04:54.835Z,7.41
2023-02-27T17:07:00.123Z,7.44
2023-02-27T17:09:04.722Z,7.47
2023-02-27T17:11:08.915Z,7.45
2023-02-27T17:13:12.906Z,7.34
2023-02-27T17:15:17.015Z,7.31
2023-02-27T17:17:21.810Z,7.33
2023-02-27T17:19:27.280Z,7.34
2023-02-27T17:21:30.783Z,7.28
2023-02-27T17:23:35.243Z,7.27
2023-02-27T17:25:38.695Z,7.25
2023-02-27T17:27:42.919Z,7.24
2023-02-27T17:29:46.226Z,7.24
2023-02-27T17:31:49.884Z,7.29
2023-02-27T17:33:54.720Z,7.27
2023-02-27T17:36:02.837Z,7.28
2023-02-27T17:38:07.478Z,7.29
2023-02-27T17:40:12.783Z,7.33
2023-02-27T17:42:18.478Z,7.35
2023-02-27T17:44:22.280Z,7.37
2023-02-27T17:46:27.508Z,6.99
2023-02-27T17:48:31.222Z,7.36
2023-02-27T17:50:36.185Z,7.33
2023-02-27T17:52:39.886Z,7.31
2023-02-27T17:54:43.436Z,7.29
2023-02-27T17:56:46.762Z,7.31
2023-02-27T17:58:50.213Z,7.29
2023-02-27T18:00:53.500Z,7.27
2023-02-27T18:02:56.860Z,7.22
2023-02-27T18:05:00.216Z,7.23
2023-02-27T18:07:04.894Z,7.17
2023-02-27T18:09:08.234Z,7.18
2023-02-27T18:11:12.302Z,7.19
2023-02-27T18:13:15.746Z,7.19
2023-02-27T18:15:19.542Z,7.17
2023-02-27T18:17:22.961Z,7.17
2023-02-27T18:19:26.888Z,7.16
2023-02-27T18:21:30.343Z,7.14
2023-02-27T18:23:35.351Z,7.05
2023-02-27T18:25:38.776Z,7.04
2023-02-27T18:27:42.205Z,7.07
2023-02-27T18:29:45.552Z,7.07
2023-02-27T18:31:50.150Z,7.06
2023-02-27T18:33:53.627Z,7.04
2023-02-27T18:35:57.000Z,7.07
2023-02-27T18:38:02.241Z,7.03
2023-02-27T18:40:08.494Z,6.97
2023-02-27T18:42:11.924Z,6.95
2023-02-27T18:44:15.268Z,6.89
2023-02-27T18:46:18.825Z,6.88
2023-02-27T18:48:22.557Z,6.89
2023-02-27T18:50:26.451Z,6.93
2023-02-27T18:52:30.885Z,6.90
2023-02-27T18:54:34.374Z,6.92
2023-02-27T18:56:39.066Z,6.95
2023-02-27T18:58:42.611Z,6.44
2023-02-27T19:00:45.978Z,7.42
2023-02-27T19:02:49.392Z,7.35
2023-02-27T19:04:52.768Z,7.14
2023-02-27T19:06:56.216Z,7.17
2023-02-27T19:08:59.738Z,7.13
2023-02-27T19:11:03.758Z,7.13
2023-02-27T19:13:09.460Z,7.10
2023-02-27T19:15:13.047Z,7.03
2023-02-27T19:17:17.523Z,7.04
2023-02-27T19:19:21.146Z,7.03
2023-02-27T19:21:24.567Z,6.99
2023-02-27T19:23:27.908Z,6.97
2023-02-27T19:25:31.986Z,6.89
2023-02-27T19:27:35.397Z,6.15
2023-02-27T19:29:40.043Z,6.82
2023-02-27T19:31:45.157Z,6.68
2023-02-27T19:33:48.713Z,6.58
2023-02-27T19:35:52.317Z,6.55
2023-02-27T19:37:58.150Z,6.53
2023-02-27T19:40:04.003Z,6.51
2023-02-27T19:42:07.475Z,6.54
2023-02-27T19:44:12.180Z,6.54
2023-02-27T19:46:19.107Z,6.55
2023-02-27T19:48:22.937Z,6.64
2023-02-27T19:50:26.681Z,6.65
2023-02-27T19:52:30.026Z,6.64
2023-02-27T19:54:33.333Z,6.59
2023-02-27T19:56:36.620Z,6.47
2023-02-27T19:58:40.312Z,6.33
2023-02-27T20:00:43.693Z,6.52
2023-02-27T20:02:48.448Z,6.52
2023-02-27T20:04:51.900Z,6.50
2023-02-27T20:06:55.244Z,6.50
2023-02-27T20:08:59.892Z,6.54
2023-02-27T20:11:05.639Z,6.53
2023-02-27T20:13:09.068Z,6.46
2023-02-27T20:15:12.848Z,6.44
2023-02-27T20:17:16.262Z,6.42
2023-02-27T20:19:22.534Z,6.24
2023-02-27T20:21:28.356Z,6.03
2023-02-27T20:23:33.006Z,6.02
2023-02-27T20:25:36.388Z,6.05
2023-02-27T20:27:39.729Z,6.08
2023-02-27T20:29:48.258Z,6.04
2023-02-27T20:31:53.081Z,6.10
2023-02-27T20:33:58.071Z,5.99
2023-02-27T20:36:05.255Z,5.78
2023-02-27T20:38:08.605Z,6.08
2023-02-27T20:40:13.463Z,6.03
2023-02-27T20:42:16.911Z,6.04
2023-02-27T20:44:20.282Z,6.00
2023-02-27T20:46:26.534Z,5.98
2023-02-27T20:48:30.018Z,5.94
2023-02-27T20:50:33.355Z,6.06
2023-02-27T20:52:38.099Z,6.00
2023-02-27T20:54:41.520Z,5.93
2023-02-27T20:56:44.866Z,5.90
2023-02-27T20:58:48.567Z,5.90
2023-02-27T21:00:52.189Z,5.90
2023-02-27T21:02:55.669Z,5.86
2023-02-27T21:04:59.546Z,5.77
2023-02-27T21:07:03.094Z,5.79
2023-02-27T21:09:07.855Z,5.74
2023-02-27T21:11:13.795Z,5.77
2023-02-27T21:13:17.214Z,5.75
2023-02-27T21:15:20.624Z,5.79
2023-02-27T21:17:26.068Z,5.76
2023-02-27T21:19:29.681Z,5.68
2023-02-27T21:21:34.936Z,5.17
2023-02-27T21:23:41.297Z,5.72
2023-02-27T21:25:46.235Z,5.68
2023-02-27T21:27:49.902Z,5.65
2023-02-27T21:29:53.512Z,5.62
2023-02-27T21:31:57.031Z,5.64
2023-02-27T21:34:02.230Z,5.52
2023-02-27T21:36:06.152Z,5.61
2023-02-27T21:38:09.525Z,5.56
2023-02-27T21:40:13.747Z,5.53
2023-02-27T21:42:18.684Z,5.52
2023-02-27T21:44:24.970Z,5.55
2023-02-27T21:46:29.585Z,5.41
2023-02-27T21:48:33.254Z,5.58
2023-02-27T21:50:36.889Z,5.52
2023-02-27T21:52:40.567Z,5.52
2023-02-27T21:54:44.002Z,5.35
2023-02-27T21:56:49.027Z,5.45
2023-02-27T21:58:56.401Z,5.44
2023-02-27T22:01:00.185Z,5.46
2023-02-27T22:03:03.554Z,5.49
2023-02-27T22:05:07.800Z,5.49
2023-02-27T22:07:11.569Z,5.48
2023-02-27T22:09:15.074Z,5.40
2023-02-27T22:11:18.364Z,5.36
2023-02-27T22:13:21.795Z,5.32
2023-02-27T22:15:26.438Z,5.28
2023-02-27T22:17:29.736Z,5.23
2023-02-27T22:19:33.231Z,5.23
2023-02-27T22:21:38.217Z,5.18
2023-02-27T22:23:41.580Z,5.18
2023-02-27T22:25:44.983Z,5.12
2023-02-27T22:27:48.630Z,5.04
2023-02-27T22:29:52.248Z,5.04
2023-02-27T22:31:57.287Z,4.37
2023-02-27T22:34:02.367Z,5.04
2023-02-27T22:36:08.040Z,4.96
2023-02-27T22:38:11.534Z,4.94
2023-02-27T22:40:16.288Z,4.90
2023-02-27T22:42:19.939Z,4.89
2023-02-27T22:44:23.281Z,4.87
2023-02-27T22:46:29.065Z,4.59
2023-02-27T22:48:34.119Z,4.74
2023-02-27T22:50:37.441Z,4.67
2023-02-27T22:52:40.993Z,4.63
2023-02-27T22:54:44.395Z,4.38
2023-02-27T22:56:50.848Z,4.60
2023-02-27T22:58:54.774Z,4.56
2023-02-27T23:00:58.140Z,4.53
2023-02-27T23:03:01.391Z,4.58
2023-02-27T23:05:07.156Z,4.53
2023-02-27T23:07:10.756Z,4.52
2023-02-27T23:09:18.621Z,4.52
2023-02-27T23:11:22.452Z,4.31
2023-02-27T23:13:25.892Z,4.43
2023-02-27T23:15:29.905Z,4.39
2023-02-27T23:17:33.323Z,4.32
2023-02-27T23:19:36.656Z,4.25
2023-02-27T23:21:41.802Z,4.30
2023-02-27T23:23:45.342Z,4.31
2023-02-27T23:25:48.676Z,4.28
2023-02-27T23:27:52.335Z,4.30
2023-02-27T23:29:55.646Z,4.28
2023-02-27T23:31:59.021Z,4.26
2023-02-27T23:34:03.006Z,4.25
2023-02-27T23:36:07.118Z,4.30
2023-02-27T23:38:11.877Z,4.26
2023-02-27T23:40:15.464Z,4.22
2023-02-27T23:42:37.555Z,4.21
2023-02-27T23:44:58.728Z,4.13
2023-02-27T23:47:02.171Z,4.13
2023-02-27T23:49:05.641Z,4.10
2023-02-27T23:51:10.728Z,4.13
2023-02-27T23:53:16.127Z,4.15
2023-02-27T23:55:21.271Z,4.00
2023-02-27T23:57:24.677Z,4.13
2023-02-27T23:59:29.291Z,4.11
